Time;durP1;ratioP1;P1;durP2;ratioP2;P2;SDS_P1;SDS_P2;PMS_P1;PMS_P2;Temp;Humidity;BMP_temperature;BMP_pressure;BME280_temperature;BME280_humidity;BME280_pressure;Samples;Min_cycle;Max_cycle;Signal;HPM_P1;HPM_P2
2021/05/02 00:01:17;;;;;;;14.80;13.15;;;;;;;;;;5033575;28;20280;-58
2021/05/02 00:03:43;;;;;;;15.85;13.60;;;;;;;;;;5033234;28;20198;-58
2021/05/02 00:06:11;;;;;;;15.55;14.05;;;;;;;;;;5034305;28;20207;-57
2021/05/02 00:08:39;;;;;;;16.67;13.77;;;;;;;;;;5033333;28;20313;-57
2021/05/02 00:11:07;;;;;;;16.90;15.10;;;;;;;;;;5033570;28;20625;-58
2021/05/02 00:13:33;;;;;;;15.18;13.60;;;;;;;;;;5033401;28;20210;-58
2021/05/02 00:16:00;;;;;;;16.98;13.68;;;;;;;;;;5032978;28;20241;-57
2021/05/02 00:18:28;;;;;;;16.50;14.07;;;;;;;;;;5033618;28;20574;-57
2021/05/02 00:20:55;;;;;;;15.98;14.25;;;;;;;;;;5033618;28;20202;-57
2021/05/02 00:23:23;;;;;;;17.05;14.20;;;;;;;;;;5034745;28;20580;-57
2021/05/02 00:25:51;;;;;;;15.85;14.15;;;;;;;;;;5037308;28;20218;-57
2021/05/02 00:28:17;;;;;;;14.43;12.40;;;;;;;;;;5037713;28;20221;-57
2021/05/02 00:30:44;;;;;;;17.00;15.15;;;;;;;;;;5037435;28;20573;-57
2021/05/02 00:33:13;;;;;;;17.13;14.48;;;;;;;;;;5037466;28;20206;-57
2021/05/02 00:35:40;;;;;;;14.80;13.23;;;;;;;;;;5037470;28;20218;-57
2021/05/02 00:38:07;;;;;;;16.70;14.95;;;;;;;;;;5037408;28;20194;-57
2021/05/02 00:40:36;;;;;;;16.15;14.30;;;;;;;;;;5037357;28;20203;-57
2021/05/02 00:43:07;;;;;;;15.88;14.02;;;;;;;;;;5037401;28;20296;-58
2021/05/02 00:45:48;;;;;;;14.95;13.38;;;;;;;;;;5037094;28;20228;-58
2021/05/02 00:48:18;;;;;;;17.10;14.93;;;;;;;;;;5037132;28;20299;-57
2021/05/02 00:50:49;;;;;;;17.95;16.08;;;;;;;;;;5037496;28;20206;-57
2021/05/02 00:53:22;;;;;;;15.82;14.23;;;;;;;;;;5036761;28;20187;-58
2021/05/02 00:55:51;;;;;;;18.10;15.63;;;;;;;;;;5037195;28;20222;-58
2021/05/02 00:58:26;;;;;;;16.75;14.95;;;;;;;;;;5036836;28;20229;-58
2021/05/02 01:00:55;;;;;;;15.38;13.77;;;;;;;;;;5036659;28;20187;-57
2021/05/02 01:03:24;;;;;;;15.63;13.98;;;;;;;;;;5036705;28;20214;-57
2021/05/02 01:05:52;;;;;;;19.73;14.48;;;;;;;;;;5036861;28;20638;-58
2021/05/02 01:08:19;;;;;;;16.05;14.35;;;;;;;;;;5036534;28;20226;-57
2021/05/02 01:10:46;;;;;;;19.08;15.90;;;;;;;;;;5036802;28;20206;-57
2021/05/02 01:13:15;;;;;;;17.40;15.45;;;;;;;;;;5036657;28;20670;-57
2021/05/02 01:15:46;;;;;;;20.63;15.35;;;;;;;;;;5036328;28;20265;-57
2021/05/02 01:18:13;;;;;;;18.48;14.98;;;;;;;;;;5036484;28;20194;-57
2021/05/02 01:20:41;;;;;;;18.27;15.45;;;;;;;;;;5036429;28;20202;-57
2021/05/02 01:23:11;;;;;;;17.38;15.30;;;;;;;;;;5036650;28;20226;-57
2021/05/02 01:25:39;;;;;;;18.02;14.80;;;;;;;;;;5036229;28;20234;-56
2021/05/02 01:28:05;;;;;;;17.60;15.65;;;;;;;;;;5036167;28;20219;-57
2021/05/02 01:30:32;;;;;;;19.25;17.15;;;;;;;;;;5036063;28;20210;-57
2021/05/02 01:32:59;;;;;;;16.70;14.90;;;;;;;;;;5036348;28;20202;-57
2021/05/02 01:35:26;;;;;;;20.85;16.08;;;;;;;;;;5035472;28;20237;-57
2021/05/02 01:37:52;;;;;;;18.40;16.42;;;;;;;;;;5036257;28;20550;-57
2021/05/02 01:40:20;;;;;;;17.52;15.73;;;;;;;;;;5036264;28;20202;-57
2021/05/02 01:42:47;;;;;;;19.55;16.63;;;;;;;;;;5035780;28;20245;-57
2021/05/02 01:45:14;;;;;;;16.52;14.82;;;;;;;;;;5036018;28;20226;-57
2021/05/02 01:47:44;;;;;;;18.45;16.27;;;;;;;;;;5036024;28;20256;-57
2021/05/02 01:50:12;;;;;;;20.02;15.32;;;;;;;;;;5036592;28;20613;-57
2021/05/02 01:52:43;;;;;;;19.27;15.90;;;;;;;;;;5035717;28;20205;-57
2021/05/02 01:55:11;;;;;;;19.60;15.52;;;;;;;;;;5035607;28;20230;-57
2021/05/02 01:57:38;;;;;;;23.95;16.10;;;;;;;;;;5035794;28;20268;-57
2021/05/02 02:00:08;;;;;;;20.75;16.83;;;;;;;;;;5036523;28;20199;-57
2021/05/02 02:02:35;;;;;;;21.65;16.58;;;;;;;;;;5035462;28;20198;-57
2021/05/02 02:05:03;;;;;;;17.40;15.48;;;;;;;;;;5035685;28;20242;-57
2021/05/02 02:07:31;;;;;;;20.15;16.60;;;;;;;;;;5035827;28;20207;-57
2021/05/02 02:09:57;;;;;;;19.92;17.73;;;;;;;;;;5035348;28;20646;-57
2021/05/02 02:12:24;;;;;;;21.00;17.73;;;;;;;;;;5035458;28;20206;-57
2021/05/02 02:14:52;;;;;;;19.35;16.83;;;;;;;;;;5053666;22;20227;-62
2021/05/02 02:17:20;;;;;;;18.17;16.17;;;;;;;;;;5015859;28;20214;-63
2021/05/02 02:19:47;;;;;;;18.80;16.83;;;;;;;;;;5017046;28;20215;-63
2021/05/02 02:22:15;;;;;;;18.55;16.60;;;;;;;;;;5016834;28;20227;-62
2021/05/02 02:24:42;;;;;;;18.75;16.10;;;;;;;;;;5016569;28;20227;-63
2021/05/02 02:27:10;;;;;;;20.77;16.90;;;;;;;;;;5016662;28;20207;-62
2021/05/02 02:29:39;;;;;;;19.98;16.88;;;;;;;;;;5016555;28;20242;-63
2021/05/02 02:32:09;;;;;;;21.40;16.95;;;;;;;;;;5016271;28;20210;-63
2021/05/02 02:34:40;;;;;;;17.67;15.35;;;;;;;;;;5015185;28;20225;-64
2021/05/02 02:37:06;;;;;;;19.30;16.38;;;;;;;;;;5015606;28;20192;-63
2021/05/02 02:39:33;;;;;;;20.25;17.38;;;;;;;;;;5014916;28;20207;-63
2021/05/02 02:42:00;;;;;;;19.33;17.30;;;;;;;;;;5015244;28;20199;-63
2021/05/02 02:44:28;;;;;;;18.15;16.23;;;;;;;;;;5015227;28;20230;-63
2021/05/02 02:46:57;;;;;;;18.77;15.80;;;;;;;;;;5014356;28;20349;-62
2021/05/02 02:49:24;;;;;;;18.63;16.80;;;;;;;;;;5014913;28;20234;-62
2021/05/02 02:51:53;;;;;;;21.15;17.00;;;;;;;;;;5015160;28;20203;-63
2021/05/02 02:54:22;;;;;;;20.15;17.08;;;;;;;;;;5014696;28;20218;-62
2021/05/02 02:56:51;;;;;;;20.67;17.15;;;;;;;;;;5015022;28;20568;-63
2021/05/02 02:59:19;;;;;;;22.20;19.10;;;;;;;;;;5014865;28;20199;-63
2021/05/02 03:01:47;;;;;;;21.98;17.52;;;;;;;;;;5014767;28;20210;-62
2021/05/02 03:04:16;;;;;;;21.08;18.85;;;;;;;;;;5014512;28;20207;-62
2021/05/02 03:06:43;;;;;;;20.95;17.42;;;;;;;;;;5014870;28;20271;-62
2021/05/02 03:09:11;;;;;;;24.15;19.65;;;;;;;;;;5014445;28;20765;-63
2021/05/02 03:11:38;;;;;;;20.55;17.70;;;;;;;;;;5014476;28;20214;-63
2021/05/02 03:14:05;;;;;;;22.23;19.55;;;;;;;;;;5017922;28;20211;-63
2021/05/02 03:16:32;;;;;;;25.70;19.25;;;;;;;;;;5026552;28;20265;-63
2021/05/02 03:19:02;;;;;;;19.67;17.27;;;;;;;;;;5028386;28;20207;-62
2021/05/02 03:21:32;;;;;;;23.55;18.98;;;;;;;;;;5026864;28;20207;-62
2021/05/02 03:23:59;;;;;;;19.13;17.00;;;;;;;;;;5021333;28;20202;-64
2021/05/02 03:26:28;;;;;;;25.70;19.52;;;;;;;;;;5014597;28;20220;-63
2021/05/02 03:28:57;;;;;;;21.65;18.85;;;;;;;;;;5021444;28;20219;-63
2021/05/02 03:31:25;;;;;;;24.05;19.17;;;;;;;;;;5020387;28;20203;-63
2021/05/02 03:33:54;;;;;;;19.52;17.40;;;;;;;;;;5014264;28;20226;-63
2021/05/02 03:36:29;;;;;;;22.38;19.98;;;;;;;;;;5014396;28;20223;-63
2021/05/02 03:38:57;;;;;;;21.83;19.50;;;;;;;;;;5014583;28;20184;-63
2021/05/02 03:41:23;;;;;;;27.13;21.02;;;;;;;;;;5014124;28;20219;-62
2021/05/02 03:43:51;;;;;;;27.63;20.83;;;;;;;;;;5014245;28;20211;-63
2021/05/02 03:46:25;;;;;;;23.67;19.50;;;;;;;;;;5013794;28;20230;-62
2021/05/02 03:48:55;;;;;;;27.77;22.05;;;;;;;;;;5013951;28;20298;-63
2021/05/02 03:51:22;;;;;;;25.30;21.10;;;;;;;;;;5013723;28;20651;-63
2021/05/02 03:53:48;;;;;;;27.50;21.02;;;;;;;;;;5014024;28;20207;-63
2021/05/02 03:56:29;;;;;;;24.63;20.70;;;;;;;;;;5013914;28;20223;-63
2021/05/02 03:59:04;;;;;;;26.33;22.00;;;;;;;;;;5013321;28;20658;-63
2021/05/02 04:01:31;;;;;;;27.90;22.40;;;;;;;;;;5040014;23;20253;-55
2021/05/02 04:03:59;;;;;;;26.17;20.50;;;;;;;;;;5034668;28;20191;-55
2021/05/02 04:08:05;;;;;;;27.45;21.30;;;;;;;;;;5112060;27;20544;-57
2021/05/02 04:10:32;;;;;;;28.15;22.15;;;;;;;;;;5111373;28;20207;-56
2021/05/02 04:12:59;;;;;;;26.83;21.30;;;;;;;;;;5111463;28;20242;-57
2021/05/02 04:15:26;;;;;;;27.75;23.05;;;;;;;;;;5130513;22;20195;-56
2021/05/02 04:17:53;;;;;;;27.23;21.67;;;;;;;;;;5053497;28;20182;-56
2021/05/02 04:20:20;;;;;;;24.60;21.90;;;;;;;;;;5053788;28;20197;-56
2021/05/02 04:22:47;;;;;;;29.05;22.95;;;;;;;;;;5053828;28;20206;-56
2021/05/02 04:25:15;;;;;;;27.10;21.55;;;;;;;;;;5053548;28;20578;-56
2021/05/02 04:27:42;;;;;;;25.52;22.10;;;;;;;;;;5053643;28;20217;-56
2021/05/02 04:30:09;;;;;;;25.42;20.77;;;;;;;;;;5053261;28;20263;-56
2021/05/02 04:32:36;;;;;;;26.52;20.60;;;;;;;;;;5053425;28;20205;-56
2021/05/02 04:35:04;;;;;;;29.08;22.50;;;;;;;;;;5084446;22;22069;-55
2021/05/02 04:37:30;;;;;;;28.95;20.55;;;;;;;;;;5050022;28;20228;-53
2021/05/02 04:39:57;;;;;;;25.50;19.92;;;;;;;;;;5050223;28;20256;-54
2021/05/02 04:42:25;;;;;;;23.73;19.30;;;;;;;;;;5050195;28;20233;-55
2021/05/02 04:44:51;;;;;;;25.77;22.73;;;;;;;;;;5049779;28;20202;-55
2021/05/02 04:47:19;;;;;;;25.25;20.35;;;;;;;;;;5050029;28;20218;-55
2021/05/02 04:49:46;;;;;;;26.95;22.20;;;;;;;;;;5065552;22;20226;-56
2021/05/02 04:52:14;;;;;;;24.33;20.90;;;;;;;;;;5049993;28;20209;-56
2021/05/02 04:54:41;;;;;;;25.63;20.58;;;;;;;;;;5050145;28;20198;-56
2021/05/02 04:57:08;;;;;;;25.75;21.85;;;;;;;;;;5050552;28;20198;-56
2021/05/02 04:59:35;;;;;;;25.65;20.25;;;;;;;;;;5049786;28;20658;-56
2021/05/02 05:02:02;;;;;;;24.45;20.63;;;;;;;;;;5050041;28;20201;-56
2021/05/02 05:04:29;;;;;;;26.35;21.50;;;;;;;;;;5050120;28;20203;-56
2021/05/02 05:06:56;;;;;;;22.08;19.35;;;;;;;;;;5049830;28;20225;-56
2021/05/02 05:09:23;;;;;;;23.08;19.35;;;;;;;;;;5049692;28;20702;-59
2021/05/02 05:11:50;;;;;;;21.95;19.58;;;;;;;;;;5049870;28;20220;-56
2021/05/02 05:14:16;;;;;;;23.70;18.35;;;;;;;;;;5049725;28;20221;-56
2021/05/02 05:16:44;;;;;;;22.55;18.15;;;;;;;;;;5049551;28;20202;-56
2021/05/02 05:19:11;;;;;;;25.25;19.38;;;;;;;;;;5037459;28;20740;-57
2021/05/02 05:21:37;;;;;;;20.00;17.83;;;;;;;;;;5036188;28;20202;-56
2021/05/02 05:24:05;;;;;;;21.45;18.52;;;;;;;;;;5036084;28;20199;-56
2021/05/02 05:26:31;;;;;;;20.35;17.20;;;;;;;;;;5036234;28;20219;-56
2021/05/02 05:28:58;;;;;;;22.10;17.75;;;;;;;;;;5036055;28;20230;-57
2021/05/02 05:31:25;;;;;;;20.20;17.92;;;;;;;;;;5036157;28;20202;-56
2021/05/02 05:33:53;;;;;;;20.10;16.98;;;;;;;;;;5036168;28;20211;-57
2021/05/02 05:36:19;;;;;;;18.92;16.92;;;;;;;;;;5036615;28;20200;-57
2021/05/02 05:38:48;;;;;;;19.83;16.85;;;;;;;;;;5036122;28;20250;-57
2021/05/02 05:41:15;;;;;;;18.73;16.00;;;;;;;;;;5036059;28;20575;-57
2021/05/02 05:43:41;;;;;;;18.67;16.67;;;;;;;;;;5035935;28;20297;-58
2021/05/02 05:46:13;;;;;;;18.23;15.20;;;;;;;;;;5035559;28;20220;-56
2021/05/02 05:48:40;;;;;;;20.83;16.77;;;;;;;;;;5036770;28;20218;-56
2021/05/02 05:51:08;;;;;;;18.15;16.15;;;;;;;;;;5035418;28;20698;-56
2021/05/02 05:53:35;;;;;;;20.38;17.23;;;;;;;;;;5035826;28;20199;-56
2021/05/02 05:56:02;;;;;;;18.83;15.90;;;;;;;;;;5035431;28;20206;-57
2021/05/02 05:58:30;;;;;;;22.63;17.73;;;;;;;;;;5035415;28;20203;-57
2021/05/02 06:00:58;;;;;;;20.13;16.20;;;;;;;;;;5035621;28;20218;-56
2021/05/02 06:03:24;;;;;;;22.90;16.40;;;;;;;;;;5035846;28;20598;-56
2021/05/02 06:05:51;;;;;;;18.45;16.35;;;;;;;;;;5035359;28;20740;-56
2021/05/02 06:08:19;;;;;;;18.15;15.70;;;;;;;;;;5035590;28;20214;-57
2021/05/02 06:10:45;;;;;;;20.73;17.23;;;;;;;;;;5035370;28;20222;-56
2021/05/02 06:13:12;;;;;;;17.90;16.00;;;;;;;;;;5035458;28;20202;-57
2021/05/02 06:15:39;;;;;;;19.17;15.85;;;;;;;;;;5035401;28;20205;-57
2021/05/02 06:18:06;;;;;;;19.25;17.15;;;;;;;;;;5035414;28;20200;-57
2021/05/02 06:20:34;;;;;;;17.90;15.40;;;;;;;;;;5035005;28;20775;-57
2021/05/02 06:23:00;;;;;;;19.05;16.10;;;;;;;;;;5035197;28;20202;-57
2021/05/02 06:25:28;;;;;;;17.27;14.52;;;;;;;;;;5035251;28;20210;-57
2021/05/02 06:27:56;;;;;;;19.35;14.95;;;;;;;;;;5035133;28;20230;-57
2021/05/02 06:30:24;;;;;;;15.82;14.13;;;;;;;;;;5033647;28;20219;-57
2021/05/02 06:32:50;;;;;;;15.13;13.60;;;;;;;;;;5034649;28;20234;-57
2021/05/02 06:35:17;;;;;;;16.48;14.65;;;;;;;;;;5034631;28;20669;-57
2021/05/02 06:37:44;;;;;;;16.70;14.85;;;;;;;;;;5034569;28;20211;-57
2021/05/02 06:40:12;;;;;;;17.38;14.48;;;;;;;;;;5034764;28;20229;-58
2021/05/02 06:42:40;;;;;;;17.60;14.73;;;;;;;;;;5034383;28;20674;-58
2021/05/02 06:45:07;;;;;;;16.23;14.20;;;;;;;;;;5034490;28;20207;-57
2021/05/02 06:47:33;;;;;;;15.50;13.75;;;;;;;;;;5034293;28;20218;-57
2021/05/02 06:50:00;;;;;;;16.65;14.32;;;;;;;;;;5034361;28;20238;-57
2021/05/02 06:52:27;;;;;;;16.15;14.45;;;;;;;;;;5034328;28;20736;-58
2021/05/02 06:54:55;;;;;;;16.85;14.10;;;;;;;;;;5034350;28;20244;-57
2021/05/02 06:57:22;;;;;;;18.48;14.43;;;;;;;;;;5034131;28;20690;-57
2021/05/02 06:59:50;;;;;;;17.75;14.45;;;;;;;;;;5034335;28;20226;-57
2021/05/02 07:02:17;;;;;;;18.17;14.75;;;;;;;;;;5034512;28;20202;-58
2021/05/02 07:04:43;;;;;;;18.60;12.45;;;;;;;;;;5034350;28;20205;-56
2021/05/02 07:07:10;;;;;;;17.25;13.93;;;;;;;;;;5034215;28;20222;-57
2021/05/02 07:09:37;;;;;;;13.95;12.48;;;;;;;;;;5034320;28;20226;-57
2021/05/02 07:12:04;;;;;;;14.85;11.95;;;;;;;;;;5034099;28;20670;-57
2021/05/02 07:14:31;;;;;;;12.90;11.35;;;;;;;;;;5034228;28;20206;-57
2021/05/02 07:16:58;;;;;;;14.60;12.55;;;;;;;;;;5034147;28;20205;-57
2021/05/02 07:19:25;;;;;;;14.30;11.77;;;;;;;;;;5033849;28;20714;-55
2021/05/02 07:22:00;;;;;;;13.45;11.27;;;;;;;;;;5033878;28;20213;-57
2021/05/02 07:24:27;;;;;;;13.27;11.25;;;;;;;;;;5034375;28;20265;-56
2021/05/02 07:26:54;;;;;;;15.43;12.02;;;;;;;;;;5033959;28;20233;-58
2021/05/02 07:29:21;;;;;;;13.13;11.70;;;;;;;;;;5033838;28;20222;-57
2021/05/02 07:31:47;;;;;;;13.27;11.90;;;;;;;;;;5034291;28;20207;-57
2021/05/02 07:34:15;;;;;;;14.73;11.80;;;;;;;;;;5034337;28;20202;-57
2021/05/02 07:36:42;;;;;;;12.07;10.20;;;;;;;;;;5033494;28;20437;-57
2021/05/02 07:39:09;;;;;;;11.00;9.90;;;;;;;;;;5033570;28;20233;-57
2021/05/02 07:41:36;;;;;;;10.68;9.07;;;;;;;;;;5033505;28;20449;-56
2021/05/02 07:44:03;;;;;;;10.93;9.77;;;;;;;;;;5033654;28;20209;-57
2021/05/02 07:46:30;;;;;;;10.30;8.45;;;;;;;;;;5033675;28;20214;-57
2021/05/02 07:48:57;;;;;;;11.93;8.48;;;;;;;;;;5033133;28;20256;-57
2021/05/02 07:51:24;;;;;;;11.60;8.82;;;;;;;;;;5033319;28;20266;-57
2021/05/02 07:53:51;;;;;;;10.75;8.60;;;;;;;;;;5033518;28;20276;-57
2021/05/02 07:56:18;;;;;;;10.57;9.30;;;;;;;;;;5033232;28;20209;-57
2021/05/02 07:58:45;;;;;;;9.05;8.15;;;;;;;;;;5033294;28;20202;-56
2021/05/02 08:01:11;;;;;;;12.15;9.60;;;;;;;;;;5034020;28;20202;-56
2021/05/02 08:03:38;;;;;;;10.85;9.43;;;;;;;;;;5034156;28;20203;-57
2021/05/02 08:06:05;;;;;;;10.80;9.57;;;;;;;;;;5034128;28;20256;-55
2021/05/02 08:08:33;;;;;;;11.93;9.40;;;;;;;;;;5034016;28;20198;-57
2021/05/02 08:10:59;;;;;;;10.73;9.60;;;;;;;;;;5033657;28;20461;-56
2021/05/02 08:13:26;;;;;;;10.00;9.00;;;;;;;;;;5033923;28;20202;-57
2021/05/02 08:15:53;;;;;;;9.20;8.30;;;;;;;;;;5033802;28;20691;-57
2021/05/02 08:18:20;;;;;;;11.63;8.27;;;;;;;;;;5033341;28;20449;-57
2021/05/02 08:20:47;;;;;;;10.43;9.43;;;;;;;;;;5033783;28;20914;-56
2021/05/02 08:23:13;;;;;;;11.20;8.63;;;;;;;;;;5035064;28;20860;-58
2021/05/02 08:25:41;;;;;;;12.00;9.03;;;;;;;;;;5033579;28;20450;-57
2021/05/02 08:28:08;;;;;;;8.60;7.70;;;;;;;;;;5033563;28;20845;-56
2021/05/02 08:30:35;;;;;;;9.60;8.60;;;;;;;;;;5033387;28;20465;-56
2021/05/02 08:33:01;;;;;;;9.13;8.23;;;;;;;;;;5033709;28;20449;-57
2021/05/02 08:35:28;;;;;;;11.33;8.43;;;;;;;;;;5033559;28;20449;-57
2021/05/02 08:40:24;;;;;;;10.43;7.50;;;;;;;;;;5052047;28;20468;-57
2021/05/02 08:42:52;;;;;;;10.10;9.10;;;;;;;;;;5053256;28;20501;-55
2021/05/02 08:45:19;;;;;;;11.77;9.37;;;;;;;;;;5052738;28;20786;-55
2021/05/02 08:47:49;;;;;;;10.53;9.20;;;;;;;;;;5053609;28;20484;-54
2021/05/02 08:50:16;;;;;;;12.30;10.48;;;;;;;;;;5033693;28;20560;-53
2021/05/02 08:52:43;;;;;;;10.73;9.32;;;;;;;;;;5033536;28;20206;-53
2021/05/02 08:55:10;;;;;;;11.68;10.13;;;;;;;;;;5037044;28;20206;-53
2021/05/02 08:57:38;;;;;;;14.13;10.07;;;;;;;;;;5036891;28;20194;-53
2021/05/02 09:00:07;;;;;;;12.02;10.70;;;;;;;;;;5037266;28;20226;-53
2021/05/02 09:02:35;;;;;;;11.63;10.40;;;;;;;;;;5036688;28;20203;-52
2021/05/02 09:05:03;;;;;;;11.67;9.50;;;;;;;;;;5036566;28;20464;-54
2021/05/02 09:07:40;;;;;;;11.77;10.40;;;;;;;;;;5036480;28;20579;-53
2021/05/02 09:10:07;;;;;;;12.30;10.70;;;;;;;;;;5071401;22;20477;-56
2021/05/02 09:12:34;;;;;;;13.37;9.80;;;;;;;;;;5097541;28;20446;-57
2021/05/02 09:15:04;;;;;;;13.45;11.13;;;;;;;;;;5096944;28;20472;-57
2021/05/02 09:17:39;;;;;;;11.00;9.17;;;;;;;;;;5096399;28;20548;-57
2021/05/02 09:20:06;;;;;;;11.33;10.03;;;;;;;;;;5096692;28;20544;-57
2021/05/02 09:22:33;;;;;;;12.23;10.83;;;;;;;;;;5096680;28;20439;-57
2021/05/02 09:25:00;;;;;;;11.37;9.67;;;;;;;;;;5096671;28;20894;-57
2021/05/02 09:27:27;;;;;;;13.83;10.00;;;;;;;;;;5096424;28;20500;-57
2021/05/02 09:29:54;;;;;;;10.63;8.37;;;;;;;;;;5096359;28;20442;-57
2021/05/02 09:32:22;;;;;;;10.87;8.93;;;;;;;;;;5095859;28;20472;-57
2021/05/02 09:34:50;;;;;;;13.60;8.50;;;;;;;;;;5096238;28;20446;-56
2021/05/02 09:37:17;;;;;;;11.50;8.83;;;;;;;;;;5096257;28;20446;-57
2021/05/02 09:39:46;;;;;;;10.30;9.23;;;;;;;;;;5104852;22;20857;-55
2021/05/02 09:42:15;;;;;;;9.80;8.80;;;;;;;;;;5076002;28;20946;-55
2021/05/02 09:44:46;;;;;;;11.00;9.40;;;;;;;;;;5075776;28;20473;-54
2021/05/02 09:47:28;;;;;;;15.00;9.60;;;;;;;;;;5075988;28;20467;-53
2021/05/02 09:50:06;;;;;;;13.13;10.30;;;;;;;;;;5075536;28;20471;-57
2021/05/02 09:52:47;;;;;;;14.37;10.27;;;;;;;;;;5075614;28;20460;-56
2021/05/02 09:55:21;;;;;;;10.23;9.27;;;;;;;;;;5075780;28;20439;-56
2021/05/02 09:57:58;;;;;;;12.93;9.00;;;;;;;;;;5075460;28;20511;-53
2021/05/02 10:00:28;;;;;;;11.43;10.20;;;;;;;;;;5075703;28;20436;-55
2021/05/02 10:02:56;;;;;;;12.10;10.37;;;;;;;;;;5075301;28;20502;-55
2021/05/02 10:05:24;;;;;;;10.77;8.80;;;;;;;;;;5075539;28;20451;-55
2021/05/02 10:07:51;;;;;;;10.43;9.33;;;;;;;;;;5075473;28;20537;-59
2021/05/02 10:10:18;;;;;;;10.93;9.63;;;;;;;;;;5100019;22;20484;-60
2021/05/02 10:15:16;;;;;;;6.17;5.50;;;;;;;;;;5114385;22;20579;-54
2021/05/02 10:17:42;;;;;;;5.37;4.87;;;;;;;;;;5075091;28;20490;-56
2021/05/02 10:20:12;;;;;;;7.07;5.17;;;;;;;;;;5074988;28;20452;-57
2021/05/02 10:22:40;;;;;;;7.73;5.40;;;;;;;;;;5074995;28;20509;-57
2021/05/02 10:25:07;;;;;;;5.97;5.37;;;;;;;;;;5075223;28;20532;-54
2021/05/02 10:27:40;;;;;;;4.70;4.20;;;;;;;;;;5074509;28;20491;-55
2021/05/02 10:30:08;;;;;;;7.87;4.50;;;;;;;;;;5075239;28;20431;-56
2021/05/02 10:32:35;;;;;;;7.70;5.60;;;;;;;;;;5075100;28;20451;-55
2021/05/02 10:35:10;;;;;;;7.40;5.57;;;;;;;;;;5075019;28;20972;-55
2021/05/02 10:37:38;;;;;;;9.10;6.17;;;;;;;;;;5075115;28;20972;-55
2021/05/02 10:40:11;;;;;;;8.33;7.40;;;;;;;;;;5075027;28;20455;-56
2021/05/02 10:42:39;;;;;;;11.00;8.00;;;;;;;;;;5125534;22;20552;-59
2021/05/02 10:45:20;;;;;;;8.93;8.02;;;;;;;;;;5117218;22;20560;-57
2021/05/02 10:50:25;;;;;;;9.23;8.27;;;;;;;;;;5091109;22;20237;-57
2021/05/02 10:53:01;;;;;;;9.30;7.82;;;;;;;;;;5074455;28;20193;-57
2021/05/02 10:55:45;;;;;;;9.02;8.15;;;;;;;;;;5074432;28;20246;-59
2021/05/02 10:58:18;;;;;;;9.05;8.25;;;;;;;;;;5074142;28;20217;-58
2021/05/02 11:00:48;;;;;;;10.05;7.88;;;;;;;;;;5073735;28;20221;-57
2021/05/02 11:03:30;;;;;;;8.60;7.70;;;;;;;;;;5075424;28;20205;-59
2021/05/02 11:05:57;;;;;;;10.00;7.77;;;;;;;;;;5057751;28;20917;-59
2021/05/02 11:08:38;;;;;;;7.23;6.50;;;;;;;;;;5073831;28;20507;-58
2021/05/02 11:11:06;;;;;;;7.83;7.03;;;;;;;;;;5073282;28;20439;-59
2021/05/02 11:13:32;;;;;;;7.07;6.37;;;;;;;;;;5097764;22;20500;-55
2021/05/02 11:16:14;;;;;;;9.40;6.00;;;;;;;;;;5073451;28;20446;-57
2021/05/02 11:18:51;;;;;;;6.80;6.10;;;;;;;;;;5073350;28;20435;-57
2021/05/02 11:21:17;;;;;;;6.97;6.27;;;;;;;;;;5122486;22;20493;-58
2021/05/02 11:23:58;;;;;;;6.73;5.57;;;;;;;;;;5093797;28;20442;-58
2021/05/02 11:26:42;;;;;;;6.90;6.30;;;;;;;;;;5093889;28;20449;-58
2021/05/02 11:29:15;;;;;;;10.67;6.53;;;;;;;;;;5086756;28;20495;-59
2021/05/02 11:31:42;;;;;;;7.20;5.63;;;;;;;;;;5093877;28;20464;-60
2021/05/02 11:34:09;;;;;;;8.33;7.20;;;;;;;;;;5106431;22;20585;-57
2021/05/02 11:36:38;;;;;;;7.33;6.27;;;;;;;;;;5073979;28;20423;-57
2021/05/02 11:39:05;;;;;;;6.50;5.60;;;;;;;;;;5074205;28;20475;-56
2021/05/02 11:41:54;;;;;;;6.90;6.20;;;;;;;;;;5074432;28;20504;-57
2021/05/02 11:44:22;;;;;;;6.00;5.40;;;;;;;;;;5073512;28;20466;-57
2021/05/02 11:46:49;;;;;;;7.60;5.20;;;;;;;;;;5074086;28;20526;-60
2021/05/02 11:49:16;;;;;;;7.47;5.60;;;;;;;;;;5073859;28;20986;-57
2021/05/02 11:51:42;;;;;;;7.10;5.53;;;;;;;;;;5073709;28;20491;-59
2021/05/02 11:54:12;;;;;;;6.80;6.10;;;;;;;;;;5073433;28;20469;-54
2021/05/02 11:56:41;;;;;;;12.13;6.40;;;;;;;;;;5073115;28;20440;-57
2021/05/02 11:59:08;;;;;;;8.00;6.23;;;;;;;;;;5073331;28;20453;-57
2021/05/02 12:01:38;;;;;;;8.03;7.20;;;;;;;;;;5073038;28;20947;-58
2021/05/02 12:04:06;;;;;;;6.03;5.43;;;;;;;;;;5073264;28;20472;-57
2021/05/02 12:06:33;;;;;;;5.87;5.37;;;;;;;;;;5072676;28;20837;-56
2021/05/02 12:09:00;;;;;;;6.40;5.10;;;;;;;;;;5106194;22;20491;-60
2021/05/02 12:11:28;;;;;;;7.30;5.20;;;;;;;;;;5073030;28;20810;-60
2021/05/02 12:13:56;;;;;;;6.07;5.47;;;;;;;;;;5075230;28;20455;-61
2021/05/02 12:16:23;;;;;;;8.43;5.47;;;;;;;;;;5072976;28;20443;-61
2021/05/02 12:18:52;;;;;;;4.93;4.43;;;;;;;;;;5073221;28;20520;-60
2021/05/02 12:21:20;;;;;;;4.83;4.20;;;;;;;;;;5073180;28;20204;-61
2021/05/02 12:23:47;;;;;;;5.23;3.47;;;;;;;;;;5091615;22;20786;-58
2021/05/02 12:26:15;;;;;;;4.30;3.60;;;;;;;;;;5092784;28;20476;-58
2021/05/02 12:28:42;;;;;;;3.17;2.80;;;;;;;;;;5094667;28;20470;-58
2021/05/02 12:31:11;;;;;;;3.43;2.73;;;;;;;;;;5097026;28;20720;-58
2021/05/02 12:33:38;;;;;;;3.60;2.60;;;;;;;;;;5097141;28;20457;-57
2021/05/02 12:36:06;;;;;;;5.33;2.60;;;;;;;;;;5096782;28;20809;-58
2021/05/02 12:38:33;;;;;;;3.30;2.57;;;;;;;;;;5096806;28;20439;-56
2021/05/02 12:41:00;;;;;;;2.30;2.10;;;;;;;;;;5116205;22;20548;-64
2021/05/02 12:43:28;;;;;;;2.87;2.20;;;;;;;;;;5076867;28;20438;-63
2021/05/02 12:45:55;;;;;;;3.80;2.30;;;;;;;;;;5076443;28;20443;-63
2021/05/02 12:48:29;;;;;;;2.97;2.23;;;;;;;;;;5128461;22;20480;-58
2021/05/02 12:50:57;;;;;;;4.13;2.40;;;;;;;;;;5115191;22;20494;-65
2021/05/02 12:53:36;;;;;;;2.40;2.20;;;;;;;;;;5096969;28;20448;-62
2021/05/02 12:56:03;;;;;;;2.80;1.80;;;;;;;;;;5097013;28;20430;-63
2021/05/02 12:58:36;;;;;;;4.20;2.13;;;;;;;;;;5096443;28;20468;-66
2021/05/02 13:01:10;;;;;;;2.23;1.60;;;;;;;;;;5096836;28;20550;-64
2021/05/02 13:03:38;;;;;;;2.30;1.80;;;;;;;;;;5096690;28;20426;-65
2021/05/02 13:06:06;;;;;;;2.07;1.83;;;;;;;;;;5104386;22;20890;-64
2021/05/02 13:08:34;;;;;;;2.10;1.90;;;;;;;;;;5075810;28;20490;-63
2021/05/02 13:11:01;;;;;;;3.70;2.10;;;;;;;;;;5076156;28;20531;-63
2021/05/02 13:13:27;;;;;;;3.83;2.30;;;;;;;;;;5075914;28;20447;-62
2021/05/02 13:15:55;;;;;;;2.43;2.20;;;;;;;;;;5076650;28;20468;-62
2021/05/02 13:18:21;;;;;;;4.37;2.37;;;;;;;;;;5075868;28;20497;-63
2021/05/02 13:20:50;;;;;;;2.30;2.10;;;;;;;;;;5075826;28;20447;-63
2021/05/02 13:23:36;;;;;;;3.00;2.30;;;;;;;;;;5075492;28;20943;-63
2021/05/02 13:26:13;;;;;;;2.10;1.90;;;;;;;;;;5075636;28;20872;-63
2021/05/02 13:28:40;;;;;;;2.17;1.67;;;;;;;;;;5075867;28;20471;-63
2021/05/02 13:31:07;;;;;;;2.47;1.90;;;;;;;;;;5075862;28;20451;-61
2021/05/02 13:33:34;;;;;;;2.50;2.30;;;;;;;;;;5075982;28;20540;-63
2021/05/02 13:36:01;;;;;;;2.47;2.27;;;;;;;;;;5076219;28;20476;-63
2021/05/02 13:38:28;;;;;;;2.73;2.23;;;;;;;;;;5075371;28;20439;-63
2021/05/02 13:40:56;;;;;;;2.53;2.00;;;;;;;;;;5075376;28;20840;-62
2021/05/02 13:43:22;;;;;;;2.50;2.30;;;;;;;;;;5075687;28;20449;-62
2021/05/02 13:45:49;;;;;;;2.47;1.93;;;;;;;;;;5075299;28;20551;-63
2021/05/02 13:48:16;;;;;;;3.03;2.50;;;;;;;;;;5075429;28;20503;-63
2021/05/02 13:50:43;;;;;;;2.30;2.10;;;;;;;;;;5075137;28;20954;-63
2021/05/02 13:53:09;;;;;;;2.30;2.10;;;;;;;;;;5075229;28;20997;-63
2021/05/02 13:55:36;;;;;;;2.57;2.33;;;;;;;;;;5075393;28;20521;-63
2021/05/02 13:58:04;;;;;;;1.93;1.80;;;;;;;;;;5075088;28;20439;-62
2021/05/02 14:00:30;;;;;;;2.87;2.00;;;;;;;;;;5075722;28;20852;-63
2021/05/02 14:02:58;;;;;;;3.43;1.93;;;;;;;;;;5075275;28;20443;-61
2021/05/02 14:05:25;;;;;;;2.10;1.90;;;;;;;;;;5075000;28;20484;-62
2021/05/02 14:07:52;;;;;;;2.27;1.90;;;;;;;;;;5074852;28;20533;-63
2021/05/02 14:10:19;;;;;;;2.17;1.97;;;;;;;;;;5075006;28;20479;-62
2021/05/02 14:12:45;;;;;;;2.23;1.67;;;;;;;;;;5075128;28;20440;-62
2021/05/02 14:15:13;;;;;;;2.00;1.80;;;;;;;;;;5075091;28;20525;-63
2021/05/02 14:17:40;;;;;;;1.70;1.27;;;;;;;;;;5075049;28;20481;-63
2021/05/02 14:20:07;;;;;;;1.40;1.20;;;;;;;;;;5075046;28;20447;-63
2021/05/02 14:22:34;;;;;;;5.07;1.20;;;;;;;;;;5074194;28;20453;-63
2021/05/02 14:25:01;;;;;;;1.67;1.23;;;;;;;;;;5074439;28;20459;-63
2021/05/02 14:27:27;;;;;;;1.73;1.00;;;;;;;;;;5075171;28;21014;-63
2021/05/02 14:29:54;;;;;;;1.77;1.20;;;;;;;;;;5077913;28;20447;-63
2021/05/02 14:32:22;;;;;;;2.33;1.50;;;;;;;;;;5077669;28;20474;-62
2021/05/02 14:34:49;;;;;;;2.70;1.37;;;;;;;;;;5077268;28;20477;-63
2021/05/02 14:37:15;;;;;;;1.63;1.30;;;;;;;;;;5075703;28;20444;-63
2021/05/02 14:39:42;;;;;;;3.47;1.20;;;;;;;;;;5074452;28;20474;-63
2021/05/02 14:42:10;;;;;;;1.70;1.20;;;;;;;;;;5074009;28;20958;-62